| time (UTC) | temp F | wind direction | speed MPH | gust MPH | rain 1hr in | rain 24hr in | rain mn in | humidity % | barometer mb |
| 20260505124518 | 44 | 188 | 0.0 | 1.0 | 0.00 | 0.00 | 0.00 | 58 | 1002.5 |
| 20260505123015 | 45 | 219 | 0.0 | 0.0 | 0.00 | 0.00 | 0.00 | 56 | 1002.0 |
| 20260505121529 | 46 | 214 | 0.0 | 0.0 | 0.00 | 0.00 | 0.00 | 54 | 1002.2 |
| 20260505120012 | 47 | 216 | 0.0 | 0.0 | 0.00 | 0.00 | 0.00 | 52 | 1002.4 |
| 20260505114509 | 47 | 244 | 0.0 | 1.0 | 0.00 | 0.00 | 0.00 | 52 | 1002.4 |
| 20260505113008 | 48 | 216 | 0.0 | 1.0 | 0.00 | 0.00 | 0.00 | 51 | 1002.4 |
| 20260505111508 | 48 | 213 | 0.0 | 2.0 | 0.00 | 0.00 | 0.00 | 50 | 1002.4 |
| 20260505101504 | 49 | 230 | 0.0 | 0.0 | 0.00 | 0.00 | 0.00 | 45 | 1002.1 |
| 20260505100014 | 50 | 242 | 0.0 | 0.0 | 0.00 | 0.00 | 0.00 | 43 | 1002.3 |
| 20260505094503 | 50 | 246 | 0.0 | 1.0 | 0.00 | 0.00 | 0.00 | 43 | 1002.3 |
| 20260505093003 | 50 | 237 | 0.0 | 1.0 | 0.00 | 0.00 | 0.00 | 43 | 1002.3 |
| 20260505091501 | 51 | 248 | 0.0 | 2.0 | 0.00 | 0.00 | 0.00 | 42 | 1002.6 |
| 20260505090000 | 51 | 225 | 0.0 | 1.0 | 0.00 | 0.00 | 0.00 | 42 | 1002.8 |
| 20260505084600 | 51 | 234 | 0.0 | 1.0 | 0.00 | 0.00 | 0.00 | 41 | 1003.0 |
| 20260505083107 | 51 | 219 | 0.0 | 1.0 | 0.00 | 0.00 | 0.00 | 42 | 1003.3 |
| 20260505081601 | 51 | 207 | 0.0 | 1.0 | 0.00 | 0.00 | 0.00 | 43 | 1003.5 |
| 20260505080056 | 51 | 226 | 0.0 | 1.0 | 0.00 | 0.00 | 0.00 | 42 | 1003.4 |
| 20260505074552 | 50 | 221 | 0.0 | 1.0 | 0.00 | 0.00 | 0.00 | 46 | 1003.3 |
| 20260505073048 | 48 | 240 | 0.0 | 0.0 | 0.00 | 0.00 | 0.00 | 51 | 1003.2 |
| 20260505071548 | 45 | 221 | 0.0 | 0.0 | 0.00 | 0.00 | 0.00 | 57 | 1002.7 |
| 20260505070041 | 45 | 164 | 0.0 | 0.0 | 0.00 | 0.00 | 0.00 | 64 | 1002.5 |
| 20260505064541 | 45 | 55 | 0.0 | 0.0 | 0.00 | 0.00 | 0.00 | 63 | 1002.4 |
| 20260505063039 | 45 | 55 | 0.0 | 0.0 | 0.00 | 0.00 | 0.00 | 62 | 1002.3 |
| 20260505061536 | 46 | 55 | 0.0 | 0.0 | 0.00 | 0.00 | 0.00 | 60 | 1002.1 |
| 20260505060036 | 47 | 55 | 0.0 | 0.0 | 0.00 | 0.00 | 0.00 | 57 | 1002.1 |
| 20260505054531 | 47 | 55 | 0.0 | 0.0 | 0.00 | 0.00 | 0.00 | 54 | 1002.2 |
| 20260505053029 | 49 | 55 | 0.0 | 0.0 | 0.00 | 0.00 | 0.00 | 51 | 1002.0 |
| 20260505051529 | 49 | 55 | 0.0 | 0.0 | 0.00 | 0.00 | 0.00 | 49 | 1002.1 |
| 20260505041525 | 50 | 5 | 0.0 | 0.0 | 0.00 | 0.00 | 0.00 | 48 | 1002.3 |
| 20260505040029 | 51 | 319 | 0.0 | 0.0 | 0.00 | 0.00 | 0.00 | 47 | 1002.0 |
| 20260505034524 | 51 | 309 | 0.0 | 0.0 | 0.00 | 0.00 | 0.00 | 46 | 1002.2 |
| 20260505033034 | 52 | 309 | 0.0 | 0.0 | 0.00 | 0.00 | 0.00 | 45 | 1002.2 |
| 20260505031524 | 52 | 308 | 0.0 | 0.0 | 0.00 | 0.00 | 0.00 | 40 | 1001.7 |
| 20260505030024 | 54 | 309 | 0.0 | 0.0 | 0.00 | 0.00 | 0.00 | 37 | 1001.6 |
| 20260505024537 | 56 | 308 | 0.0 | 0.0 | 0.00 | 0.00 | 0.00 | 35 | 1001.4 |
| 20260505023033 | 57 | 307 | 0.0 | 0.0 | 0.00 | 0.00 | 0.00 | 30 | 1001.4 |
| 20260505021522 | 58 | 308 | 0.0 | 0.0 | 0.00 | 0.00 | 0.00 | 29 | 1001.2 |
| 20260505020022 | 59 | 297 | 0.0 | 0.0 | 0.00 | 0.00 | 0.00 | 26 | 1001.2 |
| 20260505014533 | 60 | 288 | 0.0 | 0.0 | 0.00 | 0.00 | 0.00 | 25 | 1001.1 |
| 20260505013020 | 61 | 273 | 0.0 | 3.0 | 0.00 | 0.00 | 0.00 | 24 | 1000.8 |
| 20260505011520 | 61 | 262 | 0.0 | 4.0 | 0.00 | 0.00 | 0.00 | 24 | 1000.9 |
| 20260505010021 | 62 | 278 | 0.0 | 10.0 | 0.00 | 0.00 | 0.00 | 24 | 1001.1 |
| 20260505004518 | 63 | 300 | 0.0 | 5.0 | 0.00 | 0.00 | 0.00 | 23 | 1001.1 |
| 20260505003017 | 63 | 261 | 0.0 | 13.0 | 0.00 | 0.00 | 0.00 | 24 | 1001.3 |
| 20260505001518 | 63 | 275 | 1.0 | 20.0 | 0.00 | 0.00 | 0.00 | 22 | 1001.3 |
| 20260505000017 | 64 | 225 | 2.0 | 17.0 | 0.00 | 0.00 | 0.00 | 22 | 1001.3 |
| 20260504234517 | 64 | 269 | 1.0 | 14.0 | 0.00 | 0.00 | 0.00 | 20 | 1001.1 |
| 20260504233015 | 64 | 258 | 0.0 | 18.0 | 0.00 | 0.00 | 0.00 | 23 | 1000.8 |
| 20260504231516 | 65 | 248 | 1.0 | 23.0 | 0.00 | 0.00 | 0.00 | 20 | 1001.1 |
| 20260504230014 | 65 | 257 | 0.0 | 15.0 | 0.00 | 0.00 | 0.00 | 21 | 1000.6 |
| 20260504224513 | 66 | 227 | 1.0 | 15.0 | 0.00 | 0.00 | 0.00 | 21 | 1000.4 |
| 20260504223012 | 67 | 246 | 2.0 | 20.0 | 0.00 | 0.00 | 0.00 | 21 | 1000.6 |
| 20260504221512 | 67 | 222 | 1.0 | 21.0 | 0.00 | 0.00 | 0.00 | 21 | 1000.5 |
| 20260504220009 | 68 | 246 | 0.0 | 22.0 | 0.00 | 0.00 | 0.00 | 25 | 1000.8 |
| 20260504214507 | 67 | 239 | 1.0 | 13.0 | 0.00 | 0.00 | 0.00 | 24 | 1001.1 |
| 20260504213009 | 66 | 242 | 2.0 | 14.0 | 0.00 | 0.00 | 0.00 | 24 | 1001.3 |
| 20260504211513 | 66 | 224 | 1.0 | 15.0 | 0.00 | 0.00 | 0.00 | 22 | 1001.4 |
| 20260504210003 | 66 | 253 | 1.0 | 12.0 | 0.00 | 0.00 | 0.00 | 26 | 1001.6 |
| 20260504204625 | 66 | 256 | 1.0 | 12.0 | 0.00 | 0.00 | 0.00 | 26 | 1001.8 |
| 20260504203135 | 66 | 259 | 0.0 | 11.0 | 0.00 | 0.00 | 0.00 | 25 | 1002.1 |
| 20260504201657 | 67 | 226 | 0.0 | 12.0 | 0.00 | 0.00 | 0.00 | 27 | 1002.1 |
| 20260504200055 | 67 | 261 | 0.0 | 5.0 | 0.00 | 0.00 | 0.00 | 29 | 1002.2 |
| 20260504194554 | 67 | 243 | 1.0 | 13.0 | 0.00 | 0.00 | 0.00 | 30 | 1002.5 |
| 20260504193051 | 66 | 236 | 0.0 | 5.0 | 0.00 | 0.00 | 0.00 | 31 | 1002.4 |
| 20260504191553 | 65 | 206 | 0.0 | 6.0 | 0.00 | 0.00 | 0.00 | 33 | 1002.5 |
| 20260504190052 | 66 | 248 | 0.0 | 9.0 | 0.00 | 0.00 | 0.00 | 35 | 1002.9 |
| 20260504184545 | 66 | 246 | 0.0 | 8.0 | 0.00 | 0.00 | 0.00 | 36 | 1002.7 |
| 20260504183042 | 64 | 257 | 0.0 | 12.0 | 0.00 | 0.00 | 0.00 | 36 | 1003.1 |
| 20260504181539 | 64 | 271 | 0.0 | 5.0 | 0.00 | 0.00 | 0.00 | 38 | 1003.5 |
| 20260504180037 | 64 | 266 | 0.0 | 6.0 | 0.00 | 0.00 | 0.00 | 38 | 1003.6 |
| 20260504174534 | 63 | 251 | 0.0 | 13.0 | 0.00 | 0.00 | 0.00 | 41 | 1003.8 |
| 20260504173029 | 62 | 219 | 0.0 | 4.0 | 0.00 | 0.00 | 0.00 | 45 | 1004.2 |
| 20260504171525 | 60 | 221 | 0.0 | 0.0 | 0.00 | 0.00 | 0.00 | 47 | 1004.4 |